createdAt,value
2018-11-20T00:00:09.417Z,2.88
2018-11-20T00:02:58.128Z,3.01
2018-11-20T00:05:47.237Z,3.16
2018-11-20T00:08:35.878Z,3.03
2018-11-20T00:11:29.065Z,2.99
2018-11-20T00:14:37.199Z,2.92
2018-11-20T00:17:26.264Z,3.00
2018-11-20T00:20:25.686Z,3.00
2018-11-20T00:23:28.024Z,3.01
2018-11-20T00:26:33.306Z,2.99
2018-11-20T00:29:21.996Z,3.04
2018-11-20T00:32:10.792Z,2.94
2018-11-20T00:35:12.842Z,3.03
2018-11-20T00:38:01.826Z,3.00
2018-11-20T00:40:50.527Z,2.93
2018-11-20T00:43:58.704Z,2.91
2018-11-20T00:46:47.669Z,2.88
2018-11-20T00:49:37.239Z,2.88
2018-11-20T00:52:30.450Z,3.01
2018-11-20T00:55:15.674Z,2.88
2018-11-20T00:58:11.786Z,2.84
2018-11-20T01:01:20.004Z,2.90
2018-11-20T01:04:04.714Z,2.95
2018-11-20T01:07:04.120Z,2.96
2018-11-20T01:09:54.305Z,2.93
2018-11-20T01:12:47.130Z,2.79
2018-11-20T01:15:35.811Z,2.83
2018-11-20T01:18:17.876Z,2.87
2018-11-20T01:21:10.809Z,2.71
2018-11-20T01:24:19.143Z,2.79
2018-11-20T01:27:01.360Z,2.70
2018-11-20T01:29:57.300Z,2.72
2018-11-20T01:32:45.969Z,2.69
2018-11-20T01:35:54.168Z,2.79
2018-11-20T01:38:53.257Z,2.68
2018-11-20T01:41:50.402Z,2.72
2018-11-20T01:44:46.667Z,2.70
2018-11-20T01:47:35.161Z,2.73
2018-11-20T01:50:38.026Z,2.90
2018-11-20T01:53:37.170Z,2.83
2018-11-20T01:56:33.226Z,2.79
2018-11-20T01:59:22.632Z,2.85
2018-11-20T02:02:27.730Z,2.80
2018-11-20T02:05:16.480Z,2.76
2018-11-20T02:08:05.113Z,2.66
2018-11-20T02:10:58.001Z,2.68
2018-11-20T02:14:36.351Z,2.71
2018-11-20T02:17:38.942Z,2.65
2018-11-20T02:20:34.007Z,2.63
2018-11-20T02:23:30.141Z,2.61
2018-11-20T02:26:20.325Z,2.68
2018-11-20T02:29:26.847Z,2.80
2018-11-20T02:32:25.911Z,2.70
2018-11-20T02:35:14.365Z,2.60
2018-11-20T02:38:04.487Z,2.63
2018-11-20T02:40:54.561Z,2.65
2018-11-20T02:43:43.311Z,2.59
2018-11-20T02:46:26.692Z,2.60
2018-11-20T02:49:14.477Z,2.67
2018-11-20T02:52:10.797Z,2.57
2018-11-20T02:54:59.761Z,2.57
2018-11-20T02:58:01.897Z,2.59
2018-11-20T03:00:54.829Z,2.70
2018-11-20T03:03:45.000Z,2.70
2018-11-20T03:06:40.278Z,2.59
2018-11-20T03:09:39.297Z,2.65
2018-11-20T03:12:29.447Z,2.70
2018-11-20T03:15:25.380Z,2.57
2018-11-20T03:18:18.112Z,2.56
2018-11-20T03:21:10.043Z,2.58
2018-11-20T03:23:53.491Z,2.57
2018-11-20T03:26:58.699Z,2.52
2018-11-20T03:31:01.610Z,2.60
2018-11-20T03:33:50.181Z,2.62
2018-11-20T03:36:39.900Z,2.59
2018-11-20T03:39:39.933Z,2.56
2018-11-20T03:42:27.612Z,2.47
2018-11-20T03:45:16.571Z,2.48
2018-11-20T03:48:05.641Z,2.47
2018-11-20T03:50:50.495Z,2.54
2018-11-20T03:53:39.205Z,2.49
2018-11-20T03:56:29.320Z,2.56
2018-11-20T03:59:31.390Z,2.54
2018-11-20T04:02:24.048Z,2.68
2018-11-20T04:05:26.290Z,2.54
2018-11-20T04:08:22.124Z,2.59
2018-11-20T04:11:27.289Z,2.64
2018-11-20T04:14:16.361Z,2.59
2018-11-20T04:17:05.010Z,2.53
2018-11-20T04:20:04.146Z,2.46
2018-11-20T04:23:02.476Z,2.43
2018-11-20T04:25:55.767Z,2.42
2018-11-20T04:28:36.636Z,2.45
2018-11-20T04:32:17.921Z,2.46
2018-11-20T04:35:13.972Z,2.45
2018-11-20T04:38:06.909Z,2.66
2018-11-20T04:40:54.122Z,2.49
2018-11-20T04:43:42.055Z,2.56
2018-11-20T04:46:30.540Z,2.58
2018-11-20T04:49:32.305Z,2.60
2018-11-20T04:52:28.346Z,2.56
2018-11-20T04:55:33.411Z,2.52
2018-11-20T04:58:19.957Z,2.51
2018-11-20T05:01:15.919Z,2.52
2018-11-20T05:04:04.832Z,2.48
2018-11-20T05:06:53.522Z,2.50
2018-11-20T05:09:52.392Z,2.53
2018-11-20T05:12:50.161Z,2.49
2018-11-20T05:15:52.224Z,2.54
2018-11-20T05:18:57.756Z,2.56
2018-11-20T05:21:50.693Z,2.57
2018-11-20T05:24:35.072Z,2.60
2018-11-20T05:27:33.995Z,2.53
2018-11-20T05:30:22.829Z,2.58
2018-11-20T05:33:25.370Z,2.51
2018-11-20T05:36:06.107Z,2.48
2018-11-20T05:38:54.722Z,2.46
2018-11-20T05:41:43.266Z,2.47
2018-11-20T05:44:31.889Z,2.52
2018-11-20T05:47:30.908Z,2.49
2018-11-20T05:50:33.294Z,2.50
2018-11-20T05:53:22.072Z,2.53
2018-11-20T05:56:24.191Z,2.54
2018-11-20T05:59:12.802Z,2.61
2018-11-20T06:01:56.682Z,2.56
2018-11-20T06:04:47.009Z,2.62
2018-11-20T06:07:37.198Z,2.72
2018-11-20T06:10:32.033Z,2.85
2018-11-20T06:13:22.240Z,2.87
2018-11-20T06:16:05.342Z,2.80
2018-11-20T06:19:10.123Z,2.76
2018-11-20T06:22:00.068Z,2.81
2018-11-20T06:25:02.107Z,2.73
2018-11-20T06:27:49.394Z,2.68
2018-11-20T06:30:33.932Z,2.65
2018-11-20T06:33:39.171Z,2.59
2018-11-20T06:36:41.380Z,2.68
2018-11-20T06:39:23.309Z,2.60
2018-11-20T06:42:12.323Z,2.59
2018-11-20T06:45:08.565Z,2.58
2018-11-20T06:48:01.735Z,2.61
2018-11-20T06:50:50.582Z,2.58
2018-11-20T06:53:43.359Z,2.65
2018-11-20T06:56:33.595Z,2.76
2018-11-20T06:59:26.318Z,2.67
2018-11-20T07:02:19.206Z,2.68
2018-11-20T07:05:24.123Z,2.69
2018-11-20T07:08:13.073Z,2.69
2018-11-20T07:11:03.071Z,2.71
2018-11-20T07:14:06.400Z,2.77
2018-11-20T07:17:01.725Z,2.79
2018-11-20T07:19:58.503Z,2.84
2018-11-20T07:22:51.448Z,2.93
2018-11-20T07:25:53.378Z,2.94
2018-11-20T07:28:46.447Z,2.92
2018-11-20T07:31:39.601Z,2.88
2018-11-20T07:34:28.230Z,2.88
2018-11-20T07:37:33.249Z,2.91
2018-11-20T07:40:41.767Z,2.87
2018-11-20T07:43:41.249Z,2.89
2018-11-20T07:46:30.167Z,2.85
2018-11-20T07:49:26.108Z,2.84
2018-11-20T07:52:14.901Z,2.87
2018-11-20T07:55:03.451Z,2.86
2018-11-20T07:57:53.620Z,2.87
2018-11-20T08:00:56.535Z,2.85
2018-11-20T08:03:46.751Z,2.84
2018-11-20T08:06:34.465Z,2.88
2018-11-20T08:09:42.299Z,2.90
2018-11-20T08:12:47.467Z,3.10
2018-11-20T08:15:49.457Z,2.95
2018-11-20T08:18:44.582Z,2.92
2018-11-20T08:21:34.777Z,2.85
2018-11-20T08:24:31.114Z,2.84
2018-11-20T08:27:36.544Z,2.82
2018-11-20T08:30:30.758Z,2.85
2018-11-20T08:33:29.842Z,2.91
2018-11-20T08:36:38.026Z,2.91
2018-11-20T08:39:35.847Z,3.00
2018-11-20T08:42:24.746Z,3.02
2018-11-20T08:45:23.779Z,3.01
2018-11-20T08:48:16.777Z,2.98
2018-11-20T08:51:05.685Z,2.92
2018-11-20T08:54:13.950Z,2.91
2018-11-20T08:57:16.081Z,2.84
2018-11-20T09:00:06.296Z,2.89
2018-11-20T09:02:54.857Z,2.92
2018-11-20T09:05:51.361Z,3.00
2018-11-20T09:08:40.119Z,2.96
2018-11-20T09:11:38.694Z,2.92
2018-11-20T09:14:31.489Z,2.89
2018-11-20T09:17:33.789Z,2.93
2018-11-20T09:20:27.088Z,2.93
2018-11-20T09:23:19.741Z,3.01
2018-11-20T09:26:08.747Z,2.99
2018-11-20T09:28:57.583Z,3.14
2018-11-20T09:31:46.368Z,3.06
2018-11-20T09:34:39.301Z,3.03
2018-11-20T09:37:28.130Z,3.03
2018-11-20T09:40:56.598Z,3.06
2018-11-20T09:44:01.037Z,3.20
2018-11-20T09:47:00.137Z,3.43
2018-11-20T09:49:53.343Z,3.52
2018-11-20T09:52:42.244Z,3.79
2018-11-20T09:55:36.097Z,4.14
2018-11-20T09:58:32.002Z,4.56
2018-11-20T10:01:30.379Z,4.87
2018-11-20T10:04:32.273Z,5.18
2018-11-20T10:07:21.124Z,5.36
2018-11-20T10:10:29.283Z,5.25
2018-11-20T10:13:37.460Z,5.38
2018-11-20T10:16:21.026Z,5.75
2018-11-20T10:19:17.263Z,5.91
2018-11-20T10:22:06.153Z,6.18
2018-11-20T10:24:56.295Z,6.24
2018-11-20T10:27:55.291Z,6.12
2018-11-20T10:30:54.540Z,6.27
2018-11-20T10:34:02.915Z,6.76
2018-11-20T10:37:01.849Z,6.73
2018-11-20T10:39:50.463Z,6.42
2018-11-20T10:42:39.274Z,6.16
2018-11-20T10:45:41.842Z,6.06
2018-11-20T10:48:43.940Z,6.26
2018-11-20T10:51:36.685Z,5.95
2018-11-20T10:54:19.073Z,5.93
2018-11-20T10:57:11.898Z,5.87
2018-11-20T11:00:00.724Z,5.91
2018-11-20T11:02:49.378Z,6.03
2018-11-20T11:05:53.260Z,6.03
2018-11-20T11:08:43.009Z,5.99
2018-11-20T11:11:39.163Z,5.96
2018-11-20T11:14:44.469Z,5.95
2018-11-20T11:17:37.695Z,5.98
2018-11-20T11:20:34.111Z,5.86
2018-11-20T11:23:26.849Z,5.69
2018-11-20T11:26:17.159Z,5.62
2018-11-20T11:29:07.848Z,5.44
2018-11-20T11:32:09.851Z,5.43
2018-11-20T11:34:58.773Z,5.29
2018-11-20T11:37:51.616Z,5.22
2018-11-20T11:40:48.549Z,5.14
2018-11-20T11:43:37.144Z,5.08
2018-11-20T11:46:39.616Z,5.06
2018-11-20T11:49:28.241Z,5.05
2018-11-20T11:52:17.386Z,4.99
2018-11-20T11:55:10.054Z,5.06
2018-11-20T11:57:58.983Z,4.97
2018-11-20T12:00:51.893Z,4.87
2018-11-20T12:03:45.135Z,4.93
2018-11-20T12:06:35.736Z,4.93
2018-11-20T12:09:37.251Z,4.88
2018-11-20T12:12:25.771Z,4.76
2018-11-20T12:15:18.816Z,4.64
2018-11-20T12:18:27.550Z,4.59
2018-11-20T12:21:23.763Z,4.45
2018-11-20T12:24:13.088Z,4.42
2018-11-20T12:27:07.523Z,4.37
2018-11-20T12:30:03.677Z,4.35
2018-11-20T12:32:53.840Z,4.40
2018-11-20T12:35:49.728Z,4.36
2018-11-20T12:38:31.815Z,4.33
2018-11-20T12:41:19.797Z,4.36
2018-11-20T12:44:08.600Z,4.40
2018-11-20T12:47:01.818Z,4.40
2018-11-20T12:50:10.682Z,4.42
2018-11-20T12:53:09.025Z,4.50
2018-11-20T12:55:59.109Z,4.47
2018-11-20T12:59:07.188Z,4.44
2018-11-20T13:01:57.314Z,4.42
2018-11-20T13:04:46.050Z,4.50
2018-11-20T13:07:45.719Z,4.53
2018-11-20T13:10:53.682Z,4.53
2018-11-20T13:13:47.977Z,4.45
2018-11-20T13:16:39.526Z,4.33
2018-11-20T13:19:40.932Z,4.33
2018-11-20T13:22:27.359Z,4.25
2018-11-20T13:25:17.013Z,4.26
2018-11-20T13:28:05.719Z,4.30
2018-11-20T13:31:05.955Z,4.29
2018-11-20T13:34:20.657Z,4.26
2018-11-20T13:37:02.869Z,4.46
2018-11-20T13:39:57.178Z,4.36
2018-11-20T13:42:51.872Z,4.31
2018-11-20T13:45:43.861Z,4.24
2018-11-20T13:48:43.032Z,4.19
2018-11-20T13:51:48.292Z,4.14
2018-11-20T13:54:44.018Z,4.13
2018-11-20T13:57:28.204Z,4.18
2018-11-20T14:00:18.730Z,4.28
2018-11-20T14:03:07.615Z,4.20
2018-11-20T14:06:09.733Z,4.18
2018-11-20T14:09:05.863Z,4.15
2018-11-20T14:11:56.058Z,4.14
2018-11-20T14:14:51.978Z,4.14
2018-11-20T14:17:57.512Z,4.11
2018-11-20T14:20:56.697Z,4.10
2018-11-20T14:23:45.726Z,4.22
2018-11-20T14:26:35.996Z,4.12
2018-11-20T14:29:19.042Z,4.17
2018-11-20T14:32:17.402Z,4.06
2018-11-20T14:34:58.608Z,4.15
2018-11-20T14:38:06.826Z,4.10
2018-11-20T14:41:04.491Z,4.01
2018-11-20T14:43:51.449Z,4.02
2018-11-20T14:46:40.500Z,3.97
2018-11-20T14:49:40.925Z,4.00
2018-11-20T14:52:32.448Z,3.98
2018-11-20T14:55:25.182Z,3.97
2018-11-20T14:58:17.007Z,3.95
2018-11-20T15:01:06.064Z,4.03
2018-11-20T15:04:02.412Z,4.11
2018-11-20T15:06:50.912Z,4.01
2018-11-20T15:09:39.613Z,4.02
2018-11-20T15:12:28.160Z,3.93
2018-11-20T15:15:24.171Z,4.02
2018-11-20T15:18:12.822Z,3.89
2018-11-20T15:21:11.941Z,3.88
2018-11-20T15:24:00.532Z,3.92
2018-11-20T15:27:08.827Z,3.86
2018-11-20T15:29:57.534Z,3.80
2018-11-20T15:32:46.481Z,3.95
2018-11-20T15:35:39.860Z,3.83
2018-11-20T15:38:42.013Z,3.80
2018-11-20T15:41:33.133Z,3.89
2018-11-20T15:44:20.286Z,3.86
2018-11-20T15:47:07.006Z,3.80
2018-11-20T15:49:55.858Z,3.75
2018-11-20T15:52:52.146Z,3.75
2018-11-20T15:55:51.719Z,3.80
2018-11-20T15:58:41.956Z,3.82
2018-11-20T16:01:33.110Z,4.09
2018-11-20T16:04:21.909Z,4.17
2018-11-20T16:07:10.838Z,3.89
2018-11-20T16:09:53.717Z,3.86
2018-11-20T16:12:52.497Z,3.82
2018-11-20T16:15:46.907Z,3.82
2018-11-20T16:18:32.946Z,3.78
2018-11-20T16:21:19.808Z,3.72
2018-11-20T16:24:08.439Z,3.76
2018-11-20T16:26:59.266Z,3.67
2018-11-20T16:30:01.128Z,3.63
2018-11-20T16:32:51.143Z,3.61
2018-11-20T16:35:34.045Z,3.62
2018-11-20T16:38:36.021Z,3.73
2018-11-20T16:41:32.826Z,3.69
2018-11-20T16:44:22.031Z,3.61
2018-11-20T16:47:18.078Z,3.61
2018-11-20T16:50:05.877Z,3.64
2018-11-20T16:52:55.373Z,3.63
2018-11-20T16:55:44.006Z,3.60
2018-11-20T16:58:31.592Z,3.67
2018-11-20T17:01:24.730Z,3.63
2018-11-20T17:04:26.714Z,3.72
2018-11-20T17:07:16.838Z,3.62
2018-11-20T17:10:17.087Z,3.65
2018-11-20T17:13:03.583Z,3.62
2018-11-20T17:15:52.550Z,3.57
2018-11-20T17:19:01.040Z,3.56
2018-11-20T17:21:53.337Z,3.53
2018-11-20T17:24:42.441Z,3.56
2018-11-20T17:27:27.950Z,3.59
2018-11-20T17:30:16.658Z,3.62
2018-11-20T17:33:06.884Z,3.63
2018-11-20T17:36:02.978Z,3.56
2018-11-20T17:38:51.532Z,3.58
2018-11-20T17:41:40.253Z,3.66
2018-11-20T17:44:30.492Z,3.56
2018-11-20T17:47:38.960Z,3.53
2018-11-20T17:50:33.219Z,3.55
2018-11-20T17:53:26.532Z,3.55
2018-11-20T17:56:25.450Z,3.56
2018-11-20T17:59:30.655Z,3.58
2018-11-20T18:02:38.948Z,3.60
2018-11-20T18:05:34.967Z,3.61
2018-11-20T18:08:18.835Z,3.58
2018-11-20T18:11:08.034Z,3.71
2018-11-20T18:14:06.803Z,3.63
2018-11-20T18:16:59.952Z,3.65
2018-11-20T18:19:58.965Z,3.60
2018-11-20T18:23:07.387Z,3.72
2018-11-20T18:26:09.587Z,3.61
2018-11-20T18:28:59.116Z,3.57
2018-11-20T18:31:51.165Z,3.55
2018-11-20T18:34:53.430Z,3.51
2018-11-20T18:37:43.604Z,3.54
2018-11-20T18:40:29.393Z,3.54
2018-11-20T18:43:19.624Z,3.50
2018-11-20T18:46:08.744Z,3.54
2018-11-20T18:48:54.658Z,3.53
2018-11-20T18:52:02.467Z,3.54
2018-11-20T18:55:04.512Z,3.50
2018-11-20T18:57:46.606Z,3.51
2018-11-20T19:00:48.595Z,3.47
2018-11-20T19:03:47.753Z,3.41
2018-11-20T19:06:49.840Z,3.51
2018-11-20T19:09:51.129Z,3.45
2018-11-20T19:12:41.345Z,3.39
2018-11-20T19:15:51.031Z,3.35
2018-11-20T19:18:51.686Z,3.31
2018-11-20T19:21:57.097Z,3.40
2018-11-20T19:24:50.461Z,3.25
2018-11-20T19:27:49.471Z,3.31
2018-11-20T19:30:39.818Z,3.27
2018-11-20T19:33:28.437Z,3.20
2018-11-20T19:36:17.072Z,3.24
2018-11-20T19:39:07.282Z,3.33
2018-11-20T19:42:12.687Z,3.39
2018-11-20T19:45:18.266Z,3.45
2018-11-20T19:48:02.141Z,3.47
2018-11-20T19:50:57.821Z,3.49
2018-11-20T19:53:57.482Z,3.52
2018-11-20T19:56:46.031Z,3.50
2018-11-20T19:59:34.838Z,3.50
2018-11-20T20:02:23.809Z,3.55
2018-11-20T20:05:25.949Z,3.61
2018-11-20T20:08:13.318Z,3.65
2018-11-20T20:12:10.329Z,3.74
2018-11-20T20:15:02.253Z,3.74
2018-11-20T20:18:06.361Z,3.72
2018-11-20T20:21:10.172Z,3.70
2018-11-20T20:23:59.158Z,3.66
2018-11-20T20:26:46.742Z,3.65
2018-11-20T20:29:34.340Z,3.71
2018-11-20T20:32:14.862Z,3.79
2018-11-20T20:35:03.958Z,3.75
2018-11-20T20:37:58.830Z,3.76
2018-11-20T20:40:56.894Z,3.72
2018-11-20T20:43:54.529Z,3.72
2018-11-20T20:46:42.200Z,3.71
2018-11-20T20:49:30.600Z,3.67
2018-11-20T20:52:25.741Z,3.73
2018-11-20T20:55:20.630Z,3.69
2018-11-20T20:57:56.340Z,3.71
2018-11-20T21:00:50.212Z,3.71
2018-11-20T21:03:44.903Z,3.71
2018-11-20T21:06:34.918Z,3.71
2018-11-20T21:09:24.685Z,3.74
2018-11-20T21:12:12.225Z,3.73
2018-11-20T21:15:20.903Z,3.82
2018-11-20T21:18:03.368Z,3.70
2018-11-20T21:20:52.038Z,3.59
2018-11-20T21:23:50.038Z,3.63
2018-11-20T21:26:39.195Z,3.65
2018-11-20T21:29:37.006Z,3.67
2018-11-20T21:32:28.127Z,3.85
2018-11-20T21:35:25.888Z,3.85
2018-11-20T21:38:13.723Z,3.96
2018-11-20T21:41:02.664Z,3.93
2018-11-20T21:43:57.487Z,3.93
2018-11-20T21:46:52.188Z,3.88
2018-11-20T21:49:40.203Z,3.89
2018-11-20T21:52:35.131Z,3.73
2018-11-20T21:55:25.269Z,3.69
2018-11-20T21:58:11.332Z,3.65
2018-11-20T22:01:09.758Z,3.54
2018-11-20T22:04:10.625Z,3.42
2018-11-20T22:06:55.241Z,3.42
2018-11-20T22:09:43.156Z,3.43
2018-11-20T22:12:35.305Z,3.55
2018-11-20T22:15:24.300Z,3.43
2018-11-20T22:18:11.853Z,3.35
2018-11-20T22:21:15.928Z,3.36
2018-11-20T22:24:16.906Z,3.34
2018-11-20T22:27:08.497Z,3.26
2018-11-20T22:29:55.806Z,3.26
2018-11-20T22:32:50.631Z,3.38
2018-11-20T22:35:39.591Z,3.36
2018-11-20T22:38:47.035Z,3.36
2018-11-20T22:41:36.051Z,3.45
2018-11-20T22:44:23.915Z,3.50
2018-11-20T22:47:24.872Z,3.44
2018-11-20T22:50:16.490Z,3.46
2018-11-20T22:53:08.276Z,3.50
2018-11-20T22:55:57.186Z,3.48
2018-11-20T22:58:50.776Z,3.44
2018-11-20T23:01:38.445Z,3.40
2018-11-20T23:04:42.197Z,3.41
2018-11-20T23:07:31.202Z,3.25
2018-11-20T23:10:01.140Z,3.24
2018-11-20T23:12:31.266Z,3.24
2018-11-20T23:15:01.323Z,3.18
2018-11-20T23:17:31.342Z,3.26
2018-11-20T23:20:01.316Z,3.20
2018-11-20T23:22:31.496Z,3.24
2018-11-20T23:25:01.493Z,3.26
2018-11-20T23:27:31.694Z,3.28
2018-11-20T23:30:02.078Z,3.27
2018-11-20T23:32:32.048Z,3.19
2018-11-20T23:35:01.992Z,3.15
2018-11-20T23:37:31.989Z,3.21
2018-11-20T23:40:01.988Z,3.21
2018-11-20T23:42:32.346Z,3.24
2018-11-20T23:45:02.471Z,3.28
2018-11-20T23:47:32.465Z,3.29
2018-11-20T23:50:02.566Z,3.30
2018-11-20T23:52:32.674Z,3.39
2018-11-20T23:55:02.732Z,3.40
2018-11-20T23:57:32.723Z,3.54
